createdAt,value
2023-04-12T00:01:25.942Z,1.7
2023-04-12T00:07:16.905Z,2.9
2023-04-12T00:13:07.506Z,2.8
2023-04-12T00:19:00.118Z,1.7
2023-04-12T00:24:54.854Z,1.8
2023-04-12T00:30:50.549Z,1.5
2023-04-12T00:36:45.232Z,1.9
2023-04-12T00:42:41.818Z,1.9
2023-04-12T00:48:39.909Z,2.2
2023-04-12T00:54:31.162Z,1.7
2023-04-12T01:00:23.887Z,1.7
2023-04-12T01:06:18.012Z,1.7
2023-04-12T01:12:16.110Z,1.9
2023-04-12T01:18:17.005Z,1.9
2023-04-12T01:24:15.599Z,1.9
2023-04-12T01:30:22.397Z,1.8
2023-04-12T01:36:19.844Z,1.7
2023-04-12T01:42:14.008Z,2
2023-04-12T01:48:15.953Z,2
2023-04-12T01:54:35.723Z,2.3
2023-04-12T02:00:35.113Z,2.2
2023-04-12T02:06:32.666Z,2.2
2023-04-12T02:12:32.328Z,2.1
2023-04-12T02:18:31.980Z,2
2023-04-12T02:24:54.293Z,2.1
2023-04-12T02:30:54.683Z,2.5
2023-04-12T02:36:53.041Z,2.4
2023-04-12T02:42:58.787Z,2.7
2023-04-12T02:48:54.038Z,2.3
2023-04-12T02:54:48.222Z,2.6
2023-04-12T03:00:44.284Z,2.2
2023-04-12T03:06:49.325Z,2.8
2023-04-12T03:12:53.161Z,2.7
2023-04-12T03:18:43.808Z,2.9
2023-04-12T03:24:40.297Z,3.2
2023-04-12T03:30:35.943Z,2.9
2023-04-12T07:26:29.578Z,1.8
2023-04-12T08:02:16.553Z,1.9
2023-04-12T09:45:51.750Z,2.1
2023-04-12T09:51:44.332Z,1.9
2023-04-12T10:03:52.056Z,2.2
2023-04-12T10:10:02.676Z,2.4
2023-04-12T11:57:08.160Z,1.8
2023-04-12T12:40:44.421Z,2.2
2023-04-12T13:11:12.010Z,2.1
2023-04-12T13:17:08.347Z,2.6
2023-04-12T13:23:12.375Z,1.8
2023-04-12T13:29:15.571Z,1.8
2023-04-12T13:35:09.576Z,1.3
2023-04-12T13:41:12.558Z,1.2
2023-04-12T13:47:09.044Z,1
2023-04-12T13:54:36.387Z,0.9
2023-04-12T14:00:58.038Z,0.6
2023-04-12T14:06:58.806Z,0.9
2023-04-12T14:12:51.089Z,0.8
2023-04-12T14:18:45.412Z,1.3
2023-04-12T14:24:38.396Z,1
2023-04-12T14:30:41.158Z,1.1
2023-04-12T14:36:42.440Z,1
2023-04-12T14:42:41.165Z,1.2
2023-04-12T14:48:35.578Z,1
2023-04-12T14:54:30.289Z,1
2023-04-12T15:00:25.671Z,2.5
2023-04-12T15:13:37.398Z,1.3
2023-04-12T15:26:25.106Z,1.3
2023-04-12T15:38:31.797Z,1
2023-04-12T16:15:01.933Z,1.3
2023-04-12T16:20:52.522Z,1.7
2023-04-12T16:32:56.398Z,1.8
2023-04-12T16:44:46.749Z,0.5
2023-04-12T16:57:19.243Z,0.7
2023-04-12T17:03:15.736Z,0.7
2023-04-12T17:09:25.799Z,0.9
2023-04-12T17:15:17.857Z,0.9
2023-04-12T17:21:17.304Z,1.1
2023-04-12T17:27:09.183Z,1.4
2023-04-12T17:33:06.834Z,1.2
2023-04-12T17:38:59.388Z,1.1
2023-04-12T17:44:53.324Z,1.3
2023-04-12T17:50:46.101Z,1.1
2023-04-12T17:56:38.462Z,1.1
2023-04-12T18:02:34.563Z,1.1
2023-04-12T18:08:29.041Z,1.5
2023-04-12T18:14:55.409Z,1.8
2023-04-12T18:20:46.756Z,1.3
2023-04-12T18:26:40.958Z,2.3
2023-04-12T18:32:47.953Z,2.1
2023-04-12T18:38:55.187Z,2.6
2023-04-12T18:44:46.698Z,2.3
2023-04-12T18:50:39.016Z,2
2023-04-12T18:56:51.760Z,1.5
2023-04-12T19:02:43.440Z,1.8
2023-04-12T19:08:42.896Z,1.7
2023-04-12T19:27:03.336Z,2.5
2023-04-12T19:33:10.317Z,3
2023-04-12T19:45:45.502Z,2.1
2023-04-12T19:51:42.991Z,2.8
2023-04-12T19:57:55.473Z,3.2
2023-04-12T20:03:46.116Z,3.5
2023-04-12T20:09:37.079Z,3.2
2023-04-12T20:15:29.402Z,3.6
2023-04-12T20:21:51.224Z,2.9
2023-04-12T20:28:16.170Z,2.6
2023-04-12T20:40:44.655Z,1.4
2023-04-12T20:47:08.552Z,1.2
2023-04-12T21:05:28.149Z,1
2023-04-12T22:05:05.366Z,1
2023-04-12T23:17:36.954Z,1.3
2023-04-12T23:24:01.719Z,1
2023-04-12T23:30:26.750Z,1.5
2023-04-12T23:49:21.270Z,1.2
